Time;durP1;ratioP1;P1;durP2;ratioP2;P2;SDS_P1;SDS_P2;PMS_P1;PMS_P2;Temp;Humidity;BMP_temperature;BMP_pressure;BME280_temperature;BME280_humidity;BME280_pressure;Samples;Min_cycle;Max_cycle;Signal;HPM_P1;HPM_P2
2021/01/05 00:00:18;;;;;;;47.97;24.63;;;;;;;1.42;65.09;94559.28;5012012;28;20157;-65
2021/01/05 00:02:43;;;;;;;47.22;24.80;;;;;;;1.35;65.16;94552.72;5012903;28;20026;-65
2021/01/05 00:05:09;;;;;;;39.13;21.70;;;;;;;1.46;64.69;94554.31;5012059;28;20038;-67
2021/01/05 00:07:35;;;;;;;43.17;22.40;;;;;;;1.70;64.46;94558.00;5012128;28;20057;-66
2021/01/05 00:10:00;;;;;;;46.15;23.40;;;;;;;1.81;64.37;94540.44;5011799;28;20158;-66
2021/01/05 00:15:04;;;;;;;47.30;24.02;;;;;;;2.18;63.41;94570.81;5012395;28;20049;-63
2021/01/05 00:17:29;;;;;;;48.60;23.17;;;;;;;2.16;62.99;94551.94;5011962;28;20478;-63
2021/01/05 00:19:54;;;;;;;41.35;23.10;;;;;;;2.15;63.05;94558.22;5011699;28;20124;-64
2021/01/05 00:22:20;;;;;;;39.70;23.25;;;;;;;1.99;63.22;94546.97;5011830;28;20046;-62
2021/01/05 00:24:45;;;;;;;35.78;20.98;;;;;;;2.01;62.66;94524.66;5012064;28;20045;-62
2021/01/05 00:27:12;;;;;;;37.80;21.13;;;;;;;2.04;62.89;94532.00;5011834;28;20121;-64
2021/01/05 00:29:37;;;;;;;34.00;20.85;;;;;;;2.24;62.48;94564.50;5013363;28;20105;-64
2021/01/05 00:32:12;;;;;;;36.03;21.08;;;;;;;2.31;62.56;94565.03;5011521;28;20137;-64
2021/01/05 00:34:37;;;;;;;36.63;22.42;;;;;;;2.43;62.38;94568.16;5011840;28;20038;-64
2021/01/05 00:37:03;;;;;;;34.08;21.77;;;;;;;2.39;62.44;94553.19;5011615;28;20069;-64
2021/01/05 00:39:28;;;;;;;39.55;21.98;;;;;;;2.16;61.98;94504.72;5011294;28;20501;-64
2021/01/05 00:41:54;;;;;;;39.03;21.83;;;;;;;2.51;61.92;94553.69;5013136;28;20054;-64
2021/01/05 00:44:19;;;;;;;34.83;20.20;;;;;;;2.50;61.75;94555.50;5011479;28;20125;-64
2021/01/05 00:46:44;;;;;;;38.35;22.52;;;;;;;2.62;61.79;94575.47;5011573;28;20129;-64
2021/01/05 00:49:10;;;;;;;38.97;21.60;;;;;;;2.43;61.83;94543.72;5010329;28;20054;-65
2021/01/05 00:51:35;;;;;;;37.42;21.88;;;;;;;2.59;61.35;94568.88;5011128;28;20061;-64
2021/01/05 00:54:00;;;;;;;39.25;21.85;;;;;;;2.66;61.78;94572.00;5011873;28;20029;-64
2021/01/05 00:56:26;;;;;;;35.97;22.67;;;;;;;2.73;61.46;94588.28;5009740;28;20723;-64
2021/01/05 00:58:51;;;;;;;34.17;21.25;;;;;;;2.44;61.33;94559.22;5010807;28;20053;-64
2021/01/05 01:01:19;;;;;;;34.63;21.02;;;;;;;2.56;61.47;94585.19;5011024;28;20117;-64
2021/01/05 01:03:44;;;;;;;34.20;20.92;;;;;;;2.39;61.62;94572.34;5011179;28;20076;-65
2021/01/05 01:06:09;;;;;;;34.67;21.45;;;;;;;2.20;62.02;94555.59;5011044;28;20495;-64
2021/01/05 01:08:35;;;;;;;37.97;20.90;;;;;;;2.26;61.87;94555.31;5012682;28;20046;-64
2021/01/05 01:11:00;;;;;;;37.50;21.25;;;;;;;2.32;62.28;94551.63;5010990;28;20038;-63
2021/01/05 01:13:25;;;;;;;39.30;21.45;;;;;;;2.40;61.72;94563.41;5010598;28;20038;-64
2021/01/05 01:15:51;;;;;;;34.78;20.65;;;;;;;2.36;61.86;94551.91;5010849;28;20053;-64
2021/01/05 01:18:16;;;;;;;38.08;22.48;;;;;;;2.27;61.93;94535.13;5010597;28;20030;-64
2021/01/05 01:20:41;;;;;;;42.40;22.17;;;;;;;2.40;61.60;94562.63;5012601;28;20076;-63
2021/01/05 01:23:07;;;;;;;39.13;22.90;;;;;;;2.35;61.92;94545.06;5010775;28;20048;-65
2021/01/05 01:25:32;;;;;;;37.78;22.15;;;;;;;2.56;61.40;94574.69;5010513;28;20108;-64
2021/01/05 01:27:57;;;;;;;38.63;21.58;;;;;;;2.13;61.66;94541.97;5009178;28;20066;-64
2021/01/05 01:30:23;;;;;;;45.85;24.00;;;;;;;2.51;61.37;94580.72;5010177;28;20026;-64
2021/01/05 01:32:48;;;;;;;40.90;22.92;;;;;;;2.52;61.86;94586.78;5012124;28;20080;-64
2021/01/05 01:35:14;;;;;;;44.78;23.48;;;;;;;2.26;61.97;94544.03;5010594;28;20049;-64
2021/01/05 01:37:40;;;;;;;36.75;22.27;;;;;;;2.39;61.45;94546.09;5010495;28;20037;-63
2021/01/05 01:40:07;;;;;;;39.00;21.60;;;;;;;2.37;61.78;94545.59;5008764;28;20046;-63
2021/01/05 01:42:33;;;;;;;39.78;22.33;;;;;;;2.50;61.01;94552.88;5009912;28;20423;-67
2021/01/05 01:44:58;;;;;;;41.92;23.38;;;;;;;2.55;61.46;94558.13;5012247;28;20025;-63
2021/01/05 01:47:36;;;;;;;42.92;24.27;;;;;;;2.65;61.32;94574.91;5010235;28;20042;-65
2021/01/05 01:50:11;;;;;;;39.65;22.42;;;;;;;2.63;60.99;94572.56;5008764;28;20042;-65
2021/01/05 01:53:08;;;;;;;48.75;24.40;;;;;;;2.62;60.96;94563.13;5009852;28;20046;-64
2021/01/05 01:56:10;;;;;;;42.58;22.25;;;;;;;2.66;61.26;94579.09;5010034;28;20084;-64
2021/01/05 01:58:56;;;;;;;43.95;23.58;;;;;;;2.71;61.14;94571.97;5009539;28;20050;-65
2021/01/05 02:01:25;;;;;;;40.50;22.77;;;;;;;2.54;61.03;94538.19;5007819;28;20108;-64
2021/01/05 02:04:04;;;;;;;45.42;24.75;;;;;;;2.71;60.84;94558.06;5009955;28;20042;-64
2021/01/05 02:06:43;;;;;;;52.08;24.33;;;;;;;2.78;61.53;94572.50;5009838;28;20037;-64
2021/01/05 02:09:27;;;;;;;49.38;25.05;;;;;;;2.77;60.62;94570.16;5009669;28;20087;-65
2021/01/05 02:12:12;;;;;;;45.85;23.83;;;;;;;2.78;60.86;94567.25;5011562;28;20026;-64
2021/01/05 02:15:02;;;;;;;46.60;24.23;;;;;;;2.81;60.69;94573.78;5009911;28;20121;-64
2021/01/05 02:17:56;;;;;;;48.85;25.10;;;;;;;2.75;60.60;94567.78;5009550;28;20038;-65
2021/01/05 02:20:34;;;;;;;49.55;24.25;;;;;;;2.61;60.16;94540.53;4996182;28;20038;-64
2021/01/05 02:23:36;;;;;;;48.45;24.25;;;;;;;2.77;60.32;94564.91;5009367;28;20041;-64
2021/01/05 02:26:13;;;;;;;53.10;25.00;;;;;;;2.77;60.07;94570.16;5006415;28;20070;-64
2021/01/05 02:28:44;;;;;;;47.97;23.23;;;;;;;2.67;59.93;94563.09;5009149;28;20026;-64
2021/01/05 02:31:17;;;;;;;50.83;23.13;;;;;;;2.69;60.12;94578.56;5009396;28;20099;-63
2021/01/05 02:33:50;;;;;;;45.15;23.90;;;;;;;2.74;60.41;94568.06;5008096;28;20483;-63
2021/01/05 02:36:48;;;;;;;48.83;23.17;;;;;;;2.71;60.25;94563.31;5009409;28;20061;-63
2021/01/05 02:39:30;;;;;;;46.83;23.23;;;;;;;2.73;60.82;94564.66;5009113;28;20033;-65
2021/01/05 02:42:05;;;;;;;44.63;23.73;;;;;;;2.76;60.92;94560.69;5011091;28;20105;-65
2021/01/05 02:44:51;;;;;;;43.75;22.65;;;;;;;2.64;60.34;94547.88;5009326;28;20479;-64
2021/01/05 02:47:38;;;;;;;47.63;23.20;;;;;;;2.65;60.48;94554.69;5007982;28;20042;-65
2021/01/05 02:50:22;;;;;;;48.97;23.42;;;;;;;2.68;60.55;94548.13;5007679;28;20038;-65
2021/01/05 02:53:06;;;;;;;45.65;23.80;;;;;;;2.65;60.08;94552.06;5007621;28;20038;-63
2021/01/05 02:56:12;;;;;;;52.05;24.08;;;;;;;2.46;60.38;94528.25;5009273;28;20050;-63
2021/01/05 02:59:10;;;;;;;46.17;22.48;;;;;;;2.53;60.37;94552.38;5008562;28;20041;-65
2021/01/05 03:02:26;;;;;;;45.35;23.70;;;;;;;2.48;60.42;94544.50;5008862;28;20042;-64
2021/01/05 03:04:51;;;;;;;46.63;22.98;;;;;;;2.34;60.83;94527.75;4975616;28;20046;-63
2021/01/05 03:07:23;;;;;;;43.10;22.13;;;;;;;2.33;60.41;94520.91;5008868;28;20053;-64
2021/01/05 03:10:05;;;;;;;44.83;23.38;;;;;;;2.52;60.61;94542.91;5007302;28;20038;-64
2021/01/05 03:12:33;;;;;;;;;;;;;;;2.59;60.17;94540.00;5009020;28;20034;-62
2021/01/05 03:15:17;;;;;;;49.22;23.23;;;;;;;2.61;60.17;94545.78;5009508;28;19923;-62
2021/01/05 03:17:50;;;;;;;47.33;23.20;;;;;;;2.45;60.00;94528.50;5009250;28;20480;-63
2021/01/05 03:20:29;;;;;;;41.85;22.17;;;;;;;2.51;60.38;94543.97;5008633;28;20133;-63
2021/01/05 03:23:02;;;;;;;50.08;24.35;;;;;;;2.46;59.98;94544.00;5007347;28;20038;-65
2021/01/05 03:25:34;;;;;;;51.53;25.23;;;;;;;2.26;60.11;94525.69;5008878;28;20112;-64
2021/01/05 03:28:02;;;;;;;52.50;23.33;;;;;;;2.12;60.65;94535.94;5007406;28;20050;-62
2021/01/05 03:30:36;;;;;;;47.28;23.75;;;;;;;2.31;60.53;94565.81;5008521;28;20581;-64
2021/01/05 03:33:01;;;;;;;45.70;22.23;;;;;;;2.00;60.81;94499.50;5010483;28;20065;-64
2021/01/05 03:35:27;;;;;;;47.45;23.75;;;;;;;2.40;60.39;94544.25;5007405;28;20436;-63
2021/01/05 03:37:57;;;;;;;48.60;23.17;;;;;;;2.24;60.47;94518.06;5008731;28;20088;-63
2021/01/05 03:40:23;;;;;;;49.17;23.70;;;;;;;2.49;60.49;94553.94;5008541;28;20080;-63
2021/01/05 03:42:48;;;;;;;47.58;22.95;;;;;;;2.32;60.39;94519.34;5007685;28;20038;-63
2021/01/05 03:45:23;;;;;;;45.15;23.70;;;;;;;2.40;60.76;94537.16;5006505;28;20032;-63
2021/01/05 03:47:48;;;;;;;43.53;22.40;;;;;;;2.53;60.41;94543.72;5010548;28;20034;-65
2021/01/05 03:50:16;;;;;;;45.67;23.85;;;;;;;2.29;60.26;94522.50;5008532;28;20037;-64
2021/01/05 03:52:41;;;;;;;51.92;23.42;;;;;;;2.48;60.32;94555.00;5007255;28;20104;-64
2021/01/05 03:55:08;;;;;;;46.47;23.20;;;;;;;2.44;60.33;94546.09;5007352;28;20042;-63
2021/01/05 03:57:33;;;;;;;46.53;23.80;;;;;;;2.44;60.41;94540.84;5008304;28;20042;-63
2021/01/05 03:59:59;;;;;;;47.53;24.00;;;;;;;2.38;60.31;94518.28;5010091;28;20026;-64
2021/01/05 04:02:24;;;;;;;47.10;22.33;;;;;;;2.37;59.97;94527.22;5008237;28;20038;-64
2021/01/05 04:04:49;;;;;;;47.42;23.15;;;;;;;2.30;60.05;94521.44;5008511;28;20099;-64
2021/01/05 04:07:14;;;;;;;43.42;22.60;;;;;;;2.25;60.22;94510.97;5008501;28;20045;-64
2021/01/05 04:09:40;;;;;;;41.97;22.77;;;;;;;2.55;60.58;94552.09;5008075;28;20042;-64
2021/01/05 04:12:05;;;;;;;45.17;21.80;;;;;;;2.28;59.86;94513.06;5010167;28;20026;-65
2021/01/05 04:14:30;;;;;;;42.20;22.05;;;;;;;2.44;60.08;94548.72;5008342;28;20057;-64
2021/01/05 04:16:56;;;;;;;44.15;21.60;;;;;;;2.08;60.05;94498.94;5008298;28;20042;-65
2021/01/05 04:19:21;;;;;;;48.83;23.17;;;;;;;2.34;60.48;94544.28;5007943;28;20050;-65
2021/01/05 04:21:50;;;;;;;41.53;21.98;;;;;;;2.42;59.93;94556.06;5008030;28;20046;-65
2021/01/05 04:24:16;;;;;;;44.88;22.42;;;;;;;2.43;60.10;94555.00;5009831;28;20026;-65
2021/01/05 04:26:41;;;;;;;53.28;22.85;;;;;;;2.27;59.96;94543.78;5013869;28;20026;-63
2021/01/05 04:29:06;;;;;;;46.55;22.85;;;;;;;2.40;59.89;94562.63;5011413;28;20476;-63
2021/01/05 04:31:36;;;;;;;41.42;21.98;;;;;;;2.35;60.18;94542.44;5011651;28;20129;-64
2021/01/05 04:34:02;;;;;;;45.92;22.98;;;;;;;2.33;60.09;94542.69;5011726;28;20395;-64
2021/01/05 04:36:27;;;;;;;41.00;20.83;;;;;;;2.40;60.06;94560.00;5011621;28;20034;-64
2021/01/05 04:38:52;;;;;;;43.13;21.98;;;;;;;2.21;60.33;94533.56;5013310;28;20034;-64
2021/01/05 04:41:18;;;;;;;40.05;21.60;;;;;;;2.48;60.48;94560.25;5011478;28;20045;-64
2021/01/05 04:43:51;;;;;;;46.55;22.25;;;;;;;2.50;60.23;94568.63;5011347;28;20506;-64
2021/01/05 04:46:19;;;;;;;45.40;23.33;;;;;;;2.51;60.38;94574.69;5011499;28;20488;-65
2021/01/05 04:48:54;;;;;;;45.58;22.70;;;;;;;2.50;60.12;94568.63;5011341;28;20052;-66
2021/01/05 04:51:37;;;;;;;47.92;23.30;;;;;;;2.49;59.97;94571.53;5011290;28;20057;-64
2021/01/05 04:54:28;;;;;;;45.55;23.10;;;;;;;2.48;60.17;94572.59;5011783;28;20476;-64
2021/01/05 04:57:05;;;;;;;45.83;21.50;;;;;;;2.42;59.84;94563.94;5011601;28;20065;-63
2021/01/05 04:59:39;;;;;;;47.08;22.60;;;;;;;2.16;59.94;94530.94;5010960;28;20447;-64
2021/01/05 05:02:33;;;;;;;40.75;22.42;;;;;;;2.24;59.98;94538.25;5010964;28;20042;-64
2021/01/05 05:05:09;;;;;;;42.85;21.27;;;;;;;2.39;60.03;94553.97;5009615;28;20042;-64
2021/01/05 05:07:50;;;;;;;51.75;23.75;;;;;;;2.50;60.08;94567.84;5009919;28;20038;-63
2021/01/05 05:10:30;;;;;;;47.70;22.90;;;;;;;2.48;59.78;94562.88;5010782;28;20053;-64
2021/01/05 05:13:09;;;;;;;45.95;22.55;;;;;;;2.42;59.98;94560.53;5010677;28;20562;-64
2021/01/05 05:15:53;;;;;;;45.85;22.15;;;;;;;2.21;59.85;94531.72;5009735;28;20026;-64
2021/01/05 05:18:55;;;;;;;50.35;23.73;;;;;;;2.43;59.50;94565.53;5010587;28;20026;-64
2021/01/05 05:21:32;;;;;;;48.17;23.67;;;;;;;2.46;59.63;94577.34;5010669;28;20730;-64
2021/01/05 05:24:19;;;;;;;54.28;23.80;;;;;;;2.44;60.08;94577.59;5012746;28;20022;-65
2021/01/05 05:26:48;;;;;;;41.67;21.77;;;;;;;2.41;59.97;94575.50;5011150;28;20045;-64
2021/01/05 05:29:22;;;;;;;41.72;21.40;;;;;;;2.50;60.06;94589.63;5010469;28;20053;-65
2021/01/05 05:31:49;;;;;;;42.55;22.25;;;;;;;2.32;59.81;94567.38;5010243;28;20085;-64
2021/01/05 05:34:29;;;;;;;43.88;22.85;;;;;;;2.42;59.32;94584.94;5008919;28;20511;-64
2021/01/05 05:37:21;;;;;;;46.90;23.20;;;;;;;2.40;59.89;94588.88;5010543;28;20484;-64
2021/01/05 05:40:04;;;;;;;43.45;21.30;;;;;;;2.33;59.48;94581.28;5010141;28;20046;-64
2021/01/05 05:42:38;;;;;;;;;;;;;;;2.34;59.61;94598.59;5010405;28;20050;-62
2021/01/05 05:45:07;;;;;;;45.17;21.75;;;;;;;2.35;59.41;94605.41;5010898;28;19913;-64
2021/01/05 05:47:39;;;;;;;40.00;20.42;;;;;;;2.26;59.69;94593.91;5010392;28;20030;-63
2021/01/05 05:50:07;;;;;;;;;;;;;;;2.36;59.75;94604.38;5010436;28;20035;-62
2021/01/05 05:52:39;;;;;;;43.72;21.75;;;;;;;2.32;59.39;94593.63;5009857;28;19925;-64
2021/01/05 05:55:29;;;;;;;43.65;22.35;;;;;;;2.14;59.04;94582.88;5010067;28;20053;-64
2021/01/05 05:57:57;;;;;;;37.28;19.65;;;;;;;2.38;59.00;94607.53;5009353;28;20040;-63
2021/01/05 06:00:42;;;;;;;40.58;21.50;;;;;;;2.26;59.33;94580.78;5008516;28;20026;-64
2021/01/05 06:03:12;;;;;;;45.67;22.27;;;;;;;2.34;59.21;94602.00;5008511;28;20026;-64
2021/01/05 06:05:38;;;;;;;39.70;20.42;;;;;;;2.33;59.16;94608.31;5011901;28;20380;-64
2021/01/05 06:08:07;;;;;;;41.25;20.92;;;;;;;1.62;60.08;94616.19;5009918;28;20369;-64
2021/01/05 06:10:32;;;;;;;42.22;21.00;;;;;;;1.44;60.53;94567.69;5007978;28;20100;-64
2021/01/05 06:12:58;;;;;;;43.47;21.45;;;;;;;1.72;60.76;94599.69;5009542;28;20049;-64
2021/01/05 06:15:23;;;;;;;43.50;22.55;;;;;;;1.86;60.71;94605.97;5038225;23;20499;-68
2021/01/05 06:17:49;;;;;;;45.78;22.50;;;;;;;2.03;60.36;94621.44;5031299;28;20655;-67
2021/01/05 06:20:16;;;;;;;48.38;22.88;;;;;;;1.90;60.06;94622.00;5029119;28;20479;-68
2021/01/05 06:22:41;;;;;;;50.22;22.90;;;;;;;2.01;60.75;94624.34;5011377;28;20034;-68
2021/01/05 06:25:08;;;;;;;45.53;22.00;;;;;;;1.26;61.55;94605.63;5029169;28;20103;-67
2021/01/05 06:27:33;;;;;;;44.95;22.10;;;;;;;1.32;61.81;94600.41;5029426;28;20041;-67
2021/01/05 06:29:59;;;;;;;49.13;23.52;;;;;;;1.50;61.67;94603.31;5013179;28;20025;-66
2021/01/05 06:32:24;;;;;;;46.75;23.02;;;;;;;1.80;61.74;94618.31;5011235;28;20037;-68
2021/01/05 06:34:50;;;;;;;49.03;23.63;;;;;;;1.82;61.36;94607.56;5011361;28;20046;-68
2021/01/05 06:37:16;;;;;;;45.42;22.42;;;;;;;1.96;61.08;94616.47;5029254;28;20125;-67
2021/01/05 06:39:42;;;;;;;46.25;21.90;;;;;;;2.15;60.74;94631.69;5028961;28;20072;-67
2021/01/05 06:42:08;;;;;;;47.45;22.67;;;;;;;2.24;60.37;94635.34;5030652;28;20029;-67
2021/01/05 06:44:34;;;;;;;46.65;22.67;;;;;;;2.19;59.92;94619.59;5011429;28;20079;-68
2021/01/05 06:46:59;;;;;;;51.25;22.95;;;;;;;2.22;60.15;94619.09;5010548;28;20037;-68
2021/01/05 06:49:26;;;;;;;50.20;24.08;;;;;;;2.26;59.74;94620.94;5011021;28;20107;-68
2021/01/05 06:51:53;;;;;;;50.83;23.98;;;;;;;2.33;60.19;94631.16;5028804;28;20133;-69
2021/01/05 06:54:19;;;;;;;49.10;22.83;;;;;;;2.23;59.75;94620.66;5028923;28;20021;-68
2021/01/05 06:56:55;;;;;;;48.10;22.60;;;;;;;2.34;59.92;94644.00;5030852;28;20037;-69
2021/01/05 06:59:22;;;;;;;51.90;23.92;;;;;;;2.33;59.73;94647.69;5028563;28;20037;-67
2021/01/05 07:02:01;;;;;;;46.92;24.58;;;;;;;2.28;59.96;94652.94;5028652;28;20037;-67
2021/01/05 07:04:26;;;;;;;52.67;24.45;;;;;;;2.20;60.50;94631.66;5011116;28;20119;-68
2021/01/05 07:06:52;;;;;;;55.95;24.63;;;;;;;2.36;59.80;94658.72;5011058;28;20068;-67
2021/01/05 07:09:20;;;;;;;54.97;24.73;;;;;;;2.35;59.31;94657.91;5028401;28;20691;-67
2021/01/05 07:11:46;;;;;;;47.88;23.75;;;;;;;2.37;59.89;94660.28;5030579;28;20099;-68
2021/01/05 07:14:14;;;;;;;51.17;25.60;;;;;;;2.31;59.92;94654.25;5028648;28;20041;-69
2021/01/05 07:16:39;;;;;;;54.95;24.35;;;;;;;2.38;59.80;94661.84;5028558;28;20052;-67
2021/01/05 07:19:04;;;;;;;54.45;25.08;;;;;;;2.45;59.32;94672.88;5028275;28;20041;-68
2021/01/05 07:21:30;;;;;;;52.10;24.25;;;;;;;2.43;59.67;94664.47;5028457;28;20446;-68
2021/01/05 07:23:55;;;;;;;49.75;23.27;;;;;;;2.52;59.22;94673.41;5030538;28;20047;-67
2021/01/05 07:26:20;;;;;;;49.53;24.98;;;;;;;2.56;59.19;94677.09;5028672;28;20049;-68
2021/01/05 07:28:45;;;;;;;53.63;24.20;;;;;;;2.39;59.70;94639.81;5010444;28;20045;-67
2021/01/05 07:31:11;;;;;;;50.55;24.05;;;;;;;2.65;59.44;94672.06;5028613;28;20069;-67
2021/01/05 07:33:37;;;;;;;51.97;25.02;;;;;;;2.58;59.29;94662.63;5028669;28;20069;-67
2021/01/05 07:36:26;;;;;;;47.97;23.45;;;;;;;2.64;59.58;94678.38;5030572;28;20040;-68
2021/01/05 07:38:52;;;;;;;53.45;24.33;;;;;;;2.71;59.27;94692.00;5011020;28;20065;-67
2021/01/05 07:41:19;;;;;;;59.92;25.65;;;;;;;2.66;59.66;94682.28;5028127;28;20073;-66
2021/01/05 07:43:44;;;;;;;55.33;23.90;;;;;;;2.72;59.34;94678.63;5028823;28;20045;-71
2021/01/05 07:46:10;;;;;;;53.30;24.20;;;;;;;2.72;58.86;94680.47;5028789;28;20090;-71
2021/01/05 07:48:35;;;;;;;54.45;25.08;;;;;;;2.78;58.84;94690.69;5028194;28;20414;-71
2021/01/05 07:51:04;;;;;;;50.90;24.80;;;;;;;2.77;58.89;94699.63;5030366;28;20053;-70
2021/01/05 07:53:30;;;;;;;49.30;23.98;;;;;;;2.79;58.34;94696.72;5028150;28;20045;-68
2021/01/05 07:55:55;;;;;;;52.63;24.45;;;;;;;2.81;58.63;94700.66;5010349;28;20050;-65
2021/01/05 07:58:20;;;;;;;51.60;23.50;;;;;;;1.50;60.14;94686.41;5029144;28;20415;-75
2021/01/05 08:00:45;;;;;;;41.55;20.88;;;;;;;0.19;66.45;94716.81;5031892;28;20079;-69
2021/01/05 08:03:12;;;;;;;49.88;23.98;;;;;;;0.56;65.47;94713.41;5033226;28;20029;-67
2021/01/05 08:05:37;;;;;;;52.97;22.35;;;;;;;-0.13;68.44;94698.50;5033931;28;20029;-68
2021/01/05 08:08:03;;;;;;;51.30;22.98;;;;;;;-0.22;68.65;94700.75;5014284;28;20453;-68
2021/01/05 08:10:31;;;;;;;51.38;22.80;;;;;;;-0.39;69.78;94716.53;5031800;28;20045;-68
2021/01/05 08:12:56;;;;;;;50.17;24.17;;;;;;;0.29;67.68;94714.28;5032739;28;20038;-69
2021/01/05 08:15:24;;;;;;;58.83;25.02;;;;;;;0.77;66.02;94713.31;5032804;28;20453;-68
2021/01/05 08:17:50;;;;;;;58.97;25.48;;;;;;;1.04;65.23;94718.44;5034869;28;20033;-70
2021/01/05 08:20:20;;;;;;;53.15;23.13;;;;;;;0.90;64.52;94675.41;5032640;28;20426;-69
2021/01/05 08:22:46;;;;;;;52.40;24.98;;;;;;;1.46;64.47;94720.19;5032637;28;20029;-70
2021/01/05 08:25:13;;;;;;;57.58;25.05;;;;;;;1.27;64.05;94716.44;5032790;28;20041;-68
2021/01/05 08:27:38;;;;;;;52.95;23.58;;;;;;;1.36;63.74;94687.94;5032213;28;20057;-76
2021/01/05 08:30:05;;;;;;;52.42;24.17;;;;;;;1.82;63.39;94709.81;5034530;28;20030;-70
2021/01/05 08:32:30;;;;;;;64.63;25.00;;;;;;;1.80;62.43;94685.69;5014751;28;20038;-72
2021/01/05 08:34:55;;;;;;;57.45;25.85;;;;;;;2.02;61.87;94715.09;5014733;28;20071;-73
2021/01/05 08:37:21;;;;;;;56.55;24.73;;;;;;;1.73;62.33;94721.84;5032500;28;20509;-72
2021/01/05 08:39:46;;;;;;;49.75;22.65;;;;;;;2.11;62.30;94725.88;5014425;28;20041;-72
2021/01/05 08:42:12;;;;;;;53.65;23.75;;;;;;;2.37;61.49;94726.69;5032222;28;20486;-71
2021/01/05 08:44:37;;;;;;;52.22;24.33;;;;;;;1.97;61.72;94719.56;5016764;28;20052;-75
2021/01/05 08:47:04;;;;;;;47.28;21.73;;;;;;;0.02;67.24;94726.59;5032354;28;20139;-80
2021/01/05 08:49:31;;;;;;;51.22;23.42;;;;;;;1.05;64.99;94737.56;5032226;28;20510;-66
2021/01/05 08:51:57;;;;;;;54.22;23.92;;;;;;;1.00;65.22;94732.28;5031819;28;20098;-71
2021/01/05 08:54:23;;;;;;;52.67;23.25;;;;;;;0.82;65.52;94743.16;5032223;28;20108;-68
2021/01/05 08:56:53;;;;;;;47.10;20.25;;;;;;;0.04;67.94;94745.44;5036090;28;20029;-74
2021/01/05 08:59:19;;;;;;;47.35;22.00;;;;;;;0.20;67.56;94747.94;5032102;28;20045;-75
2021/01/05 09:01:44;;;;;;;48.38;22.30;;;;;;;0.07;67.60;94752.81;5026759;28;20056;-77
2021/01/05 09:04:09;;;;;;;48.88;22.33;;;;;;;0.37;66.91;94745.22;5043166;28;20053;-70
2021/01/05 09:06:34;;;;;;;50.78;21.70;;;;;;;0.02;67.64;94750.91;5034467;28;20063;-68
2021/01/05 09:09:00;;;;;;;55.80;23.73;;;;;;;0.83;65.80;94744.78;5033397;28;20440;-69
2021/01/05 09:11:27;;;;;;;48.83;23.00;;;;;;;0.66;66.60;94752.75;5031376;28;20064;-71
2021/01/05 09:13:54;;;;;;;46.40;21.98;;;;;;;1.24;64.58;94736.09;5034792;28;20060;-68
2021/01/05 09:16:27;;;;;;;48.70;21.75;;;;;;;1.94;63.59;94741.84;5014248;28;20038;-71
2021/01/05 09:18:53;;;;;;;54.15;23.15;;;;;;;0.78;64.54;94738.47;5031664;28;20064;-68
2021/01/05 09:21:22;;;;;;;55.28;22.88;;;;;;;1.55;64.11;94747.50;5031474;28;20029;-67
2021/01/05 09:23:51;;;;;;;48.88;22.45;;;;;;;2.26;62.96;94740.84;5033786;28;20120;-69
2021/01/05 09:26:23;;;;;;;44.20;21.52;;;;;;;2.66;60.38;94740.06;5013914;28;20041;-69
2021/01/05 09:28:48;;;;;;;46.67;21.92;;;;;;;2.96;59.20;94739.25;5030103;28;20041;-69
2021/01/05 09:31:13;;;;;;;44.05;21.40;;;;;;;3.17;59.43;94737.34;5031675;28;20043;-67
2021/01/05 09:33:39;;;;;;;43.17;21.08;;;;;;;3.31;57.99;94725.22;5031745;28;20054;-69
2021/01/05 09:36:04;;;;;;;42.35;21.20;;;;;;;3.50;57.49;94730.69;5015667;28;20112;-69
2021/01/05 09:38:30;;;;;;;41.50;20.88;;;;;;;3.65;57.28;94730.63;5031532;28;20128;-70
2021/01/05 09:40:55;;;;;;;42.75;20.98;;;;;;;3.79;56.52;94732.69;5031572;28;20041;-70
2021/01/05 09:43:20;;;;;;;46.97;21.70;;;;;;;3.87;56.49;94734.75;5031322;28;20643;-71
2021/01/05 09:45:46;;;;;;;46.38;22.42;;;;;;;3.87;55.98;94726.84;5031367;28;20045;-68
2021/01/05 09:48:15;;;;;;;47.22;22.05;;;;;;;3.91;55.89;94733.94;5031213;28;20033;-69
2021/01/05 09:50:45;;;;;;;55.05;22.30;;;;;;;3.89;55.62;94722.13;5033281;28;20057;-68
2021/01/05 09:53:12;;;;;;;47.67;22.05;;;;;;;3.91;55.74;94719.97;5030998;28;20044;-69
2021/01/05 09:55:37;;;;;;;46.90;22.30;;;;;;;3.99;55.63;94724.66;5031147;28;20513;-68
2021/01/05 09:58:04;;;;;;;53.97;24.27;;;;;;;3.47;55.92;94733.84;5030432;28;20033;-78
2021/01/05 10:00:30;;;;;;;52.67;22.60;;;;;;;3.58;56.57;94735.41;5012991;28;20103;-68
2021/01/05 10:02:56;;;;;;;51.85;23.77;;;;;;;3.30;56.07;94718.41;5032960;28;20029;-68
2021/01/05 10:05:21;;;;;;;46.00;22.40;;;;;;;2.38;58.87;94732.72;5031040;28;20046;-70
2021/01/05 10:07:47;;;;;;;52.15;23.48;;;;;;;2.25;59.70;94720.88;5030937;28;20057;-68
2021/01/05 10:10:19;;;;;;;53.97;23.77;;;;;;;1.83;60.72;94714.00;5012932;28;20048;-68
2021/01/05 10:12:44;;;;;;;46.60;22.10;;;;;;;1.21;61.37;94686.03;5030718;28;20094;-68
2021/01/05 10:15:10;;;;;;;50.08;22.75;;;;;;;0.82;63.81;94717.00;5030622;28;20033;-66
2021/01/05 10:17:36;;;;;;;48.60;22.55;;;;;;;1.46;62.23;94725.44;5032450;28;20495;-67
2021/01/05 10:20:04;;;;;;;48.53;21.70;;;;;;;0.85;63.37;94714.66;5030425;28;20036;-67
2021/01/05 10:22:30;;;;;;;47.90;20.90;;;;;;;0.53;64.90;94714.72;5029251;28;20041;-67
2021/01/05 10:24:56;;;;;;;43.38;20.77;;;;;;;0.62;65.37;94715.06;5030629;28;20049;-68
2021/01/05 10:27:22;;;;;;;46.97;21.75;;;;;;;0.65;64.91;94712.72;5012421;28;20022;-67
2021/01/05 10:29:47;;;;;;;48.83;20.70;;;;;;;0.45;66.06;94718.59;5031873;28;20044;-67
2021/01/05 10:32:13;;;;;;;45.15;20.95;;;;;;;-0.44;68.40;94705.25;5030264;28;20033;-68
2021/01/05 10:34:38;;;;;;;47.90;22.35;;;;;;;-0.18;68.22;94690.59;5030238;28;20037;-68
2021/01/05 10:37:05;;;;;;;50.47;20.42;;;;;;;-0.08;67.38;94698.53;5030410;28;20120;-67
2021/01/05 10:39:30;;;;;;;45.83;21.42;;;;;;;0.97;65.42;94704.00;5030066;28;20038;-71
2021/01/05 10:41:56;;;;;;;51.22;21.40;;;;;;;1.66;63.40;94682.78;5031951;28;20411;-67
2021/01/05 10:44:22;;;;;;;42.95;19.40;;;;;;;2.16;62.09;94691.78;5030216;28;20026;-67
2021/01/05 10:46:48;;;;;;;39.72;18.92;;;;;;;2.69;60.33;94702.00;5030129;28;20527;-68
2021/01/05 10:49:15;;;;;;;42.45;19.70;;;;;;;3.01;58.94;94694.56;5029668;28;20033;-68
2021/01/05 10:51:53;;;;;;;52.83;23.52;;;;;;;3.05;57.85;94644.91;5012183;28;20049;-67
2021/01/05 10:54:23;;;;;;;50.00;21.58;;;;;;;3.47;57.24;94683.91;5030093;28;20479;-67
2021/01/05 10:56:59;;;;;;;43.78;21.15;;;;;;;3.76;55.97;94693.75;5031780;28;20466;-67
2021/01/05 10:59:26;;;;;;;45.72;21.08;;;;;;;3.91;56.10;94681.31;5029278;28;20042;-69
2021/01/05 11:01:52;;;;;;;42.72;21.73;;;;;;;4.17;55.61;94695.06;5029770;28;20034;-67
2021/01/05 11:04:17;;;;;;;45.70;21.65;;;;;;;4.26;54.75;94687.41;5030147;28;20422;-68
2021/01/05 11:06:57;;;;;;;44.83;22.55;;;;;;;3.29;54.98;94676.63;5029914;28;20037;-68
2021/01/05 11:09:23;;;;;;;44.95;21.13;;;;;;;1.95;59.70;94693.59;5029103;28;20028;-66
2021/01/05 11:11:57;;;;;;;45.78;21.73;;;;;;;2.26;59.49;94686.53;5031340;28;20036;-65
2021/01/05 11:14:22;;;;;;;44.53;21.58;;;;;;;1.39;61.86;94672.50;5029550;28;20057;-73
2021/01/05 11:16:48;;;;;;;47.92;22.48;;;;;;;1.70;61.59;94680.44;5029461;28;20159;-67
2021/01/05 11:19:13;;;;;;;45.40;20.95;;;;;;;1.32;62.26;94663.28;5011564;28;20029;-66
2021/01/05 11:21:39;;;;;;;45.38;20.60;;;;;;;1.40;61.47;94660.97;5029468;28;20400;-68
2021/01/05 11:24:05;;;;;;;42.22;22.17;;;;;;;1.31;62.07;94652.00;5013393;28;20057;-70
2021/01/05 11:26:36;;;;;;;46.72;22.02;;;;;;;1.73;61.09;94651.06;5029718;28;20034;-65
2021/01/05 11:29:05;;;;;;;49.95;23.40;;;;;;;2.36;59.90;94649.00;5028716;28;20056;-68
2021/01/05 11:31:30;;;;;;;49.45;22.23;;;;;;;3.02;59.14;94666.44;5029131;28;20503;-68
2021/01/05 11:33:55;;;;;;;44.72;20.77;;;;;;;2.42;58.20;94637.44;5032289;28;20053;-64
2021/01/05 11:36:26;;;;;;;42.80;19.42;;;;;;;1.91;59.71;94647.16;5033593;28;20033;-65
2021/01/05 11:38:53;;;;;;;45.92;21.30;;;;;;;1.97;59.95;94651.38;5035202;28;20029;-66
2021/01/05 11:41:27;;;;;;;45.90;21.13;;;;;;;2.51;59.34;94654.25;5033296;28;20103;-66